Time;durP1;ratioP1;P1;durP2;ratioP2;P2;SDS_P1;SDS_P2;PMS_P1;PMS_P2;Temp;Humidity;BMP_temperature;BMP_pressure;BME280_temperature;BME280_humidity;BME280_pressure;Samples;Min_cycle;Max_cycle;Signal;HPM_P1;HPM_P2
2022/06/13 00:00:06;;;;;;;;;;;;;;;28.18;41.94;100091.53;5055120;28;1164;-40
2022/06/13 00:02:33;;;;;;;;;;;;;;;28.19;42.02;100086.97;5054393;28;1175;-40
2022/06/13 00:04:59;;;;;;;;;;;;;;;28.17;42.02;100078.22;5054930;28;1407;-40
2022/06/13 00:07:24;;;;;;;;;;;;;;;28.22;42.00;100089.25;5057665;28;1005;-40
2022/06/13 00:09:50;;;;;;;;;;;;;;;28.20;42.07;100085.94;5056380;28;1195;-41
2022/06/13 00:12:15;;;;;;;;;;;;;;;28.20;41.94;100081.34;5050231;28;1175;-39
2022/06/13 00:14:40;;;;;;;;;;;;;;;28.16;42.26;100080.09;5053326;28;998;-40
2022/06/13 00:17:05;;;;;;;;;;;;;;;28.19;42.30;100076.16;5051314;28;1898;-40
2022/06/13 00:19:31;;;;;;;;;;;;;;;28.16;42.20;100077.38;5052293;28;1005;-39
2022/06/13 00:21:56;;;;;;;;;;;;;;;28.19;41.94;100078.84;5057161;28;1164;-41
2022/06/13 00:24:21;;;;;;;;;;;;;;;28.23;41.96;100080.09;5050448;28;1128;-41
2022/06/13 00:26:47;;;;;;;;;;;;;;;28.20;41.96;100080.50;5057352;28;973;-41
2022/06/13 00:29:12;;;;;;;;;;;;;;;28.24;42.03;100085.28;5052474;28;1100;-40
2022/06/13 00:31:37;;;;;;;;;;;;;;;28.21;41.91;100080.31;5052394;28;1444;-41
2022/06/13 00:34:02;;;;;;;;;;;;;;;28.08;42.36;100078.44;5057001;28;998;-41
2022/06/13 00:36:28;;;;;;;;;;;;;;;28.09;42.12;100074.66;5037922;28;1965;-41
2022/06/13 00:38:55;;;;;;;;;;;;;;;28.13;41.97;100074.28;5054325;28;1092;-40
2022/06/13 00:41:23;;;;;;;;;;;;;;;28.11;42.00;100069.91;5055574;28;1300;-41
2022/06/13 00:43:48;;;;;;;;;;;;;;;28.14;42.20;100082.19;5056126;28;1076;-39
2022/06/13 00:46:17;;;;;;;;;;;;;;;28.10;42.11;100076.34;5046104;28;1009;-42
2022/06/13 00:48:42;;;;;;;;;;;;;;;28.09;42.05;100071.97;5048707;28;1553;-39
2022/06/13 00:51:07;;;;;;;;;;;;;;;28.08;41.81;100070.31;5053587;28;845;-39
2022/06/13 00:53:33;;;;;;;;;;;;;;;28.12;41.98;100065.34;5052123;28;1069;-41
2022/06/13 00:56:03;;;;;;;;;;;;;;;28.12;42.13;100076.16;5038607;28;1918;-38
2022/06/13 00:58:29;;;;;;;;;;;;;;;28.09;42.15;100068.44;5055722;28;1088;-41
2022/06/13 01:00:55;;;;;;;;;;;;;;;28.08;42.01;100074.88;5038363;28;1223;-41
2022/06/13 01:03:21;;;;;;;;;;;;;;;28.10;42.27;100078.22;5054168;28;1172;-40
2022/06/13 01:05:47;;;;;;;;;;;;;;;28.09;42.09;100074.66;5055341;28;1060;-41
2022/06/13 01:08:13;;;;;;;;;;;;;;;28.09;42.27;100071.16;5052936;28;1120;-42
2022/06/13 01:13:23;;;;;;;;;;;;;;;28.04;42.26;100066.38;5035297;28;974;-41
2022/06/13 01:15:51;;;;;;;;;;;;;;;28.07;42.06;100074.06;5033056;28;1907;-42
2022/06/13 01:18:23;;;;;;;;;;;;;;;28.05;42.31;100072.59;5054285;28;966;-43
2022/06/13 01:20:51;;;;;;;;;;;;;;;28.07;42.10;100076.78;5050414;28;942;-40
2022/06/13 01:23:35;;;;;;;;;;;;;;;28.07;42.38;100065.13;5049616;28;1001;-42
2022/06/13 01:26:03;;;;;;;;;;;;;;;28.05;42.11;100073.44;5047014;28;1199;-41
2022/06/13 01:28:46;;;;;;;;;;;;;;;28.10;42.08;100075.50;5053058;28;1029;-41
2022/06/13 01:31:16;;;;;;;;;;;;;;;28.06;41.94;100066.16;5049480;28;1024;-40
2022/06/13 01:34:00;;;;;;;;;;;;;;;28.09;42.01;100071.97;5034871;28;1089;-41
2022/06/13 01:36:41;;;;;;;;;;;;;;;28.09;42.05;100076.56;5054620;28;1965;-41
2022/06/13 01:39:24;;;;;;;;;;;;;;;28.09;41.94;100080.06;5054738;28;1222;-42
2022/06/13 01:41:58;;;;;;;;;;;;;;;28.10;42.08;100083.63;5055573;28;827;-41
2022/06/13 01:44:32;;;;;;;;;;;;;;;28.12;42.25;100081.56;5046118;28;1031;-41
2022/06/13 01:47:09;;;;;;;;;;;;;;;28.14;41.85;100086.75;5052224;28;1143;-41
2022/06/13 01:49:38;;;;;;;;;;;;;;;28.13;42.09;100080.50;5047400;28;1131;-41
2022/06/13 01:52:10;;;;;;;;;;;;;;;28.14;42.01;100089.47;5053885;28;977;-40
2022/06/13 01:54:42;;;;;;;;;;;;;;;28.13;42.08;100088.63;5049969;28;1152;-41
2022/06/13 01:57:25;;;;;;;;;;;;;;;28.11;41.80;100079.91;5046091;28;1905;-41
2022/06/13 01:59:56;;;;;;;;;;;;;;;28.13;41.95;100083.22;5035227;28;1132;-41
2022/06/13 02:02:44;;;;;;;;;;;;;;;28.13;42.29;100077.81;5055065;28;1052;-39
2022/06/13 02:05:29;;;;;;;;;;;;;;;28.13;42.23;100082.41;5038716;28;1575;-40
2022/06/13 02:08:00;;;;;;;;;;;;;;;28.10;42.06;100089.88;5042539;28;881;-41
2022/06/13 02:10:26;;;;;;;;;;;;;;;28.12;41.87;100086.97;5050309;28;985;-42
2022/06/13 02:12:52;;;;;;;;;;;;;;;28.09;42.12;100090.09;5055189;28;985;-41
2022/06/13 02:15:28;;;;;;;;;;;;;;;28.15;42.02;100083.84;5051975;28;1159;-43
2022/06/13 02:17:58;;;;;;;;;;;;;;;28.09;42.12;100085.50;5038151;28;1909;-41
2022/06/13 02:20:24;;;;;;;;;;;;;;;28.11;41.91;100088.81;5039641;28;1153;-43
2022/06/13 02:23:00;;;;;;;;;;;;;;;28.08;42.28;100089.25;5054278;28;1080;-41
2022/06/13 02:25:26;;;;;;;;;;;;;;;28.06;41.79;100085.09;5036727;28;1088;-42
2022/06/13 02:28:18;;;;;;;;;;;;;;;28.07;41.86;100079.47;5053551;28;997;-41
2022/06/13 02:30:51;;;;;;;;;;;;;;;28.04;42.23;100081.75;5053293;28;1397;-41
2022/06/13 02:33:24;;;;;;;;;;;;;;;28.07;42.32;100086.75;5057814;28;926;-40
2022/06/13 02:35:51;;;;;;;;;;;;;;;28.00;42.17;100084.03;5040424;28;1894;-40
2022/06/13 02:38:18;;;;;;;;;;;;;;;28.06;42.25;100085.91;5034735;28;986;-41
2022/06/13 02:41:09;;;;;;;;;;;;;;;28.05;42.02;100083.41;5052636;28;946;-39
2022/06/13 02:43:42;;;;;;;;;;;;;;;28.05;42.20;100097.75;5050281;28;1175;-41
2022/06/13 02:46:10;;;;;;;;;;;;;;;28.03;42.01;100096.31;5054080;28;961;-40
2022/06/13 02:48:40;;;;;;;;;;;;;;;28.02;42.01;100095.47;5054557;28;1096;-41
2022/06/13 02:51:11;;;;;;;;;;;;;;;28.08;42.07;100099.22;5036234;28;1061;-41
2022/06/13 02:53:42;;;;;;;;;;;;;;;28.03;42.14;100105.25;5058871;28;993;-40
2022/06/13 02:56:10;;;;;;;;;;;;;;;28.05;42.27;100102.34;5033753;28;1898;-41
2022/06/13 02:58:55;;;;;;;;;;;;;;;28.04;42.13;100109.63;5057870;28;873;-42
2022/06/13 03:01:24;;;;;;;;;;;;;;;28.05;42.08;100097.75;5041553;28;1565;-40
2022/06/13 03:03:53;;;;;;;;;;;;;;;28.07;42.28;100105.66;5053991;28;997;-41
2022/06/13 03:06:21;;;;;;;;;;;;;;;28.06;41.89;100101.31;5023153;28;1065;-41
2022/06/13 03:09:02;;;;;;;;;;;;;;;28.08;41.99;100107.31;5036160;28;1013;-42
2022/06/13 03:11:28;;;;;;;;;;;;;;;28.08;41.98;100105.47;5054431;28;934;-40
2022/06/13 03:13:54;;;;;;;;;;;;;;;28.10;41.99;100110.66;5057810;28;989;-40
2022/06/13 03:16:25;;;;;;;;;;;;;;;28.14;41.80;100109.22;5055490;28;1890;-39
2022/06/13 03:18:51;;;;;;;;;;;;;;;28.14;41.81;100103.81;5058268;28;1024;-41
2022/06/13 03:21:27;;;;;;;;;;;;;;;28.15;42.01;100107.34;5057288;28;982;-43
2022/06/13 03:23:57;;;;;;;;;;;;;;;28.13;42.28;100106.72;5055067;28;1005;-42
2022/06/13 03:26:26;;;;;;;;;;;;;;;28.17;42.13;100114.22;5038629;28;1085;-43
2022/06/13 03:28:56;;;;;;;;;;;;;;;28.23;41.70;100118.81;5031824;28;1085;-42
2022/06/13 03:31:23;;;;;;;;;;;;;;;28.18;41.66;100120.44;5050160;28;1084;-41
2022/06/13 03:33:49;;;;;;;;;;;;;;;28.19;41.79;100120.25;5033688;28;1219;-41
2022/06/13 03:36:26;;;;;;;;;;;;;;;28.11;42.08;100123.97;5027870;28;1890;-43
2022/06/13 03:38:55;;;;;;;;;;;;;;;27.36;41.79;100120.16;5045767;28;1119;-44
2022/06/13 03:41:21;;;;;;;;;;;;;;;26.58;43.06;100123.75;5035805;28;1180;-44
2022/06/13 03:43:48;;;;;;;;;;;;;;;27.20;41.12;100121.31;5037045;28;1093;-42
2022/06/13 03:46:22;;;;;;;;;;;;;;;27.54;40.39;100116.09;5056757;28;1251;-42
2022/06/13 03:48:50;;;;;;;;;;;;;;;27.59;40.71;100123.59;5056648;28;1056;-42
2022/06/13 03:51:16;;;;;;;;;;;;;;;27.36;40.99;100135.53;5056177;28;1220;-41
2022/06/13 03:53:42;;;;;;;;;;;;;;;26.69;42.65;100130.50;5039106;28;1375;-42
2022/06/13 03:56:09;;;;;;;;;;;;;;;27.19;41.57;100141.28;5055634;28;1973;-42
2022/06/13 03:58:39;;;;;;;;;;;;;;;27.57;40.71;100148.13;5056446;28;1557;-42
2022/06/13 04:01:07;;;;;;;;;;;;;;;27.69;41.29;100147.56;5037445;28;1285;-43
2022/06/13 04:03:32;;;;;;;;;;;;;;;27.74;41.26;100145.91;5039216;28;1221;-43
2022/06/13 04:05:59;;;;;;;;;;;;;;;27.82;41.09;100146.78;5039944;28;1048;-42
2022/06/13 04:08:24;;;;;;;;;;;;;;;27.99;40.74;100156.19;5057999;28;1069;-42
2022/06/13 04:11:09;;;;;;;;;;;;;;;27.98;40.42;100162.63;5057220;28;1044;-42
2022/06/13 04:13:52;;;;;;;;;;;;;;;28.06;40.71;100158.09;5056781;28;1215;-40
2022/06/13 04:16:23;;;;;;;;;;;;;;;28.15;40.84;100154.16;5056994;28;1945;-40
2022/06/13 04:19:02;;;;;;;;;;;;;;;28.18;40.90;100159.16;5039123;28;1144;-42
2022/06/13 04:21:31;;;;;;;;;;;;;;;28.22;40.73;100173.94;5033681;28;1002;-41
2022/06/13 04:24:17;;;;;;;;;;;;;;;28.14;41.09;100174.13;5057039;28;1148;-40
2022/06/13 04:26:44;;;;;;;;;;;;;;;28.16;41.36;100171.22;5038608;28;974;-40
2022/06/13 04:29:28;;;;;;;;;;;;;;;28.20;41.04;100178.72;5035832;28;1172;-41
2022/06/13 04:31:54;;;;;;;;;;;;;;;28.18;41.02;100172.66;5055367;28;1188;-41
2022/06/13 04:34:21;;;;;;;;;;;;;;;28.18;41.37;100174.53;5038166;28;1077;-42
2022/06/13 04:36:46;;;;;;;;;;;;;;;28.20;40.74;100184.13;5055711;28;1901;-43
2022/06/13 04:39:12;;;;;;;;;;;;;;;28.21;41.14;100180.38;5037487;28;1217;-43
2022/06/13 04:41:39;;;;;;;;;;;;;;;28.18;41.21;100169.97;5038401;28;1514;-41
2022/06/13 04:44:04;;;;;;;;;;;;;;;28.35;40.85;100169.59;5038789;28;1065;-42
2022/06/13 04:46:30;;;;;;;;;;;;;;;28.30;40.74;100162.09;5038335;28;1092;-41
2022/06/13 04:48:55;;;;;;;;;;;;;;;28.26;41.16;100181.63;5055754;28;1119;-42
2022/06/13 04:51:22;;;;;;;;;;;;;;;28.28;41.01;100169.56;5038034;28;1325;-42
2022/06/13 04:53:53;;;;;;;;;;;;;;;28.27;41.48;100180.59;5037498;28;1332;-41
2022/06/13 04:56:20;;;;;;;;;;;;;;;28.25;41.08;100180.78;5034966;28;1965;-43
2022/06/13 04:58:45;;;;;;;;;;;;;;;28.31;41.19;100177.25;5036321;28;1057;-42
2022/06/13 05:01:22;;;;;;;;;;;;;;;28.33;41.15;100172.53;5052949;28;1398;-42
2022/06/13 05:03:48;;;;;;;;;;;;;;;28.34;40.98;100170.66;5037355;28;1538;-41
2022/06/13 05:06:33;;;;;;;;;;;;;;;28.34;41.38;100171.47;5038212;28;942;-41
2022/06/13 05:08:59;;;;;;;;;;;;;;;28.45;41.28;100180.03;5055519;28;1248;-37
2022/06/13 05:11:27;;;;;;;;;;;;;;;28.56;40.72;100197.53;5054679;28;1084;-38
2022/06/13 05:13:53;;;;;;;;;;;;;;;28.57;41.19;100194.63;5056075;28;1053;-39
2022/06/13 05:16:27;;;;;;;;;;;;;;;28.56;40.51;100197.53;5037602;28;1959;-43
2022/06/13 05:19:31;;;;;;;;;;;;;;;28.57;40.70;100199.19;5050301;28;1450;-42
2022/06/13 05:22:06;;;;;;;;;;;;;;;28.51;40.72;100208.13;4991893;28;1230;-42
2022/06/13 05:24:38;;;;;;;;;;;;;;;28.57;40.89;100193.78;4972532;28;1274;-42
2022/06/13 05:27:06;;;;;;;;;;;;;;;28.57;40.78;100193.78;5019613;28;1397;-42
2022/06/13 05:29:32;;;;;;;;;;;;;;;28.61;41.02;100197.75;5055513;28;1107;-41
2022/06/13 05:31:57;;;;;;;;;;;;;;;28.54;41.27;100211.28;5054926;28;1013;-41
2022/06/13 05:34:25;;;;;;;;;;;;;;;28.49;39.99;100216.47;5055812;28;1049;-42
2022/06/13 05:36:50;;;;;;;;;;;;;;;28.47;40.14;100219.38;5037705;28;1957;-41
2022/06/13 05:39:15;;;;;;;;;;;;;;;28.44;38.98;100224.34;5055545;28;1287;-41
2022/06/13 05:41:41;;;;;;;;;;;;;;;28.57;39.50;100247.91;5037336;28;1375;-43
2022/06/13 05:44:06;;;;;;;;;;;;;;;28.48;40.16;100255.38;5052662;28;1189;-43
2022/06/13 05:46:35;;;;;;;;;;;;;;;28.60;39.51;100272.69;5055619;28;970;-41
2022/06/13 05:49:00;;;;;;;;;;;;;;;28.63;39.46;100286.84;5037558;28;1158;-41
2022/06/13 05:51:26;;;;;;;;;;;;;;;28.66;40.02;100295.38;5037639;28;1030;-41
2022/06/13 05:53:51;;;;;;;;;;;;;;;28.62;40.37;100298.69;5055684;28;1338;-41
2022/06/13 05:56:16;;;;;;;;;;;;;;;28.65;40.07;100296.41;5055108;28;1906;-43
2022/06/13 05:58:41;;;;;;;;;;;;;;;28.56;39.64;100292.25;5055744;28;1222;-42
2022/06/13 06:01:07;;;;;;;;;;;;;;;28.69;40.01;100291.44;5055234;28;1005;-42
2022/06/13 06:03:32;;;;;;;;;;;;;;;28.81;39.79;100303.31;5055174;28;1391;-42
2022/06/13 06:05:58;;;;;;;;;;;;;;;28.93;39.62;100300.00;5056029;28;1388;-43
2022/06/13 06:08:24;;;;;;;;;;;;;;;28.82;40.02;100302.28;5037952;28;1135;-42
2022/06/13 06:10:50;;;;;;;;;;;;;;;28.90;40.11;100312.06;5048082;28;1070;-41
2022/06/13 06:13:15;;;;;;;;;;;;;;;28.92;40.68;100309.16;5055451;28;1455;-42
2022/06/13 06:15:41;;;;;;;;;;;;;;;28.84;40.57;100300.19;5055695;28;1171;-43
2022/06/13 06:18:06;;;;;;;;;;;;;;;28.90;39.83;100311.22;5055346;28;1898;-43
2022/06/13 06:20:32;;;;;;;;;;;;;;;28.84;40.07;100312.91;5051625;28;1084;-43
2022/06/13 06:22:57;;;;;;;;;;;;;;;28.78;40.50;100311.84;5054042;28;1252;-43
2022/06/13 06:25:22;;;;;;;;;;;;;;;28.96;39.83;100322.06;5053965;28;1234;-43
2022/06/13 06:27:48;;;;;;;;;;;;;;;29.15;40.26;100314.22;5054090;28;1356;-42
2022/06/13 06:30:14;;;;;;;;;;;;;;;29.18;40.37;100326.50;5055091;28;828;-43
2022/06/13 06:32:39;;;;;;;;;;;;;;;29.08;40.03;100322.34;5054965;28;1045;-42
2022/06/13 06:35:05;;;;;;;;;;;;;;;29.23;40.50;100312.34;5053174;28;1203;-41
2022/06/13 06:37:31;;;;;;;;;;;;;;;29.33;40.44;100312.75;5053989;28;1951;-40
2022/06/13 06:39:59;;;;;;;;;;;;;;;29.36;40.14;100317.78;5054844;28;991;-43
2022/06/13 06:42:24;;;;;;;;;;;;;;;29.27;40.17;100311.72;5054853;28;1177;-41
2022/06/13 06:44:50;;;;;;;;;;;;;;;29.38;40.18;100315.66;5054245;28;1180;-41
2022/06/13 06:47:15;;;;;;;;;;;;;;;29.43;39.97;100315.03;5054658;28;1453;-41
2022/06/13 06:49:40;;;;;;;;;;;;;;;29.39;40.36;100317.34;5055012;28;1072;-43
2022/06/13 06:52:06;;;;;;;;;;;;;;;29.55;39.75;100317.94;5055063;28;1065;-42
2022/06/13 07:00:06;;;;;;;;;;;;;;;29.49;40.15;100313.38;5021717;28;1164;-43
2022/06/13 07:02:32;;;;;;;;;;;;;;;29.52;38.90;100319.22;5038979;28;1221;-43
2022/06/13 07:05:02;;;;;;;;;;;;;;;29.34;37.81;100319.84;5056249;28;1335;-43
2022/06/13 07:07:27;;;;;;;;;;;;;;;29.15;36.87;100310.66;5057587;28;1180;-42
2022/06/13 07:09:52;;;;;;;;;;;;;;;29.29;37.68;100312.34;5057489;28;1160;-43
2022/06/13 07:12:18;;;;;;;;;;;;;;;29.41;37.54;100319.84;5055848;28;1701;-41
2022/06/13 07:14:44;;;;;;;;;;;;;;;29.50;37.60;100309.59;5057101;28;1242;-39
2022/06/13 07:17:10;;;;;;;;;;;;;;;29.48;37.75;100311.72;5057698;28;1902;-42
2022/06/13 07:19:35;;;;;;;;;;;;;;;29.47;38.13;100319.00;5057627;28;1203;-44
2022/06/13 07:22:01;;;;;;;;;;;;;;;29.45;38.81;100315.66;5056928;28;1248;-41
2022/06/13 07:24:26;;;;;;;;;;;;;;;29.45;38.87;100315.66;5056712;28;1399;-43
2022/06/13 07:26:52;;;;;;;;;;;;;;;29.49;38.16;100327.78;5057231;28;1191;-42
2022/06/13 07:29:17;;;;;;;;;;;;;;;29.49;38.72;100321.50;5057290;28;1199;-43
2022/06/13 07:31:43;;;;;;;;;;;;;;;29.57;38.30;100322.13;5055928;28;1243;-43
2022/06/13 07:34:19;;;;;;;;;;;;;;;29.56;38.46;100314.22;5039023;28;1271;-38
2022/06/13 07:36:44;;;;;;;;;;;;;;;29.57;38.74;100337.56;5056857;28;1960;-41
2022/06/13 07:39:10;;;;;;;;;;;;;;;29.49;36.93;100319.63;5057358;28;855;-40
2022/06/13 07:41:35;;;;;;;;;;;;;;;29.42;37.01;100327.78;5057881;28;1001;-41
2022/06/13 07:44:00;;;;;;;;;;;;;;;27.00;41.42;100337.94;5054225;28;1565;-42
2022/06/13 07:46:27;;;;;;;;;;;;;;;23.23;47.21;100323.72;5054987;28;1345;-37
2022/06/13 07:48:52;;;;;;;;;;;;;;;21.89;49.10;100327.78;5055002;28;1540;-42
2022/06/13 07:51:19;;;;;;;;;;;;;;;21.23;49.32;100330.78;5055470;28;1393;-42
2022/06/13 07:53:44;;;;;;;;;;;;;;;20.74;49.86;100322.09;5057040;28;1270;-40
2022/06/13 07:56:10;;;;;;;;;;;;;;;20.57;49.97;100326.41;5057411;28;1979;-42
2022/06/13 07:58:36;;;;;;;;;;;;;;;20.30;49.85;100325.44;5057261;28;1239;-40
2022/06/13 08:01:01;;;;;;;;;;;;;;;20.05;49.52;100325.09;5037365;28;1240;-41
2022/06/13 08:03:28;;;;;;;;;;;;;;;19.90;49.15;100324.69;5056848;28;1129;-39
2022/06/13 08:05:54;;;;;;;;;;;;;;;19.82;49.05;100330.72;5053877;28;1193;-43
2022/06/13 08:08:19;;;;;;;;;;;;;;;19.80;49.45;100336.22;5037456;28;1375;-43
2022/06/13 08:10:46;;;;;;;;;;;;;;;19.86;49.11;100339.28;5055085;28;1515;-43
2022/06/13 08:13:14;;;;;;;;;;;;;;;19.62;49.56;100336.09;5056991;28;1235;-41
2022/06/13 08:15:40;;;;;;;;;;;;;;;19.61;49.46;100339.78;5056155;28;1209;-41
2022/06/13 08:18:05;;;;;;;;;;;;;;;19.66;49.77;100332.19;5035332;28;1973;-41
2022/06/13 08:20:30;;;;;;;;;;;;;;;19.66;49.62;100336.66;5053609;28;1400;-43
2022/06/13 08:22:58;;;;;;;;;;;;;;;19.67;49.49;100333.84;5056063;28;1334;-40
2022/06/13 08:25:28;;;;;;;;;;;;;;;19.57;49.20;100333.88;5054207;28;1471;-40
2022/06/13 08:27:56;;;;;;;;;;;;;;;19.61;49.74;100325.56;5056919;28;1228;-41
2022/06/13 08:30:21;;;;;;;;;;;;;;;19.65;50.29;100329.66;5048406;28;1420;-41
2022/06/13 08:32:46;;;;;;;;;;;;;;;19.65;51.61;100333.16;5055296;28;1248;-40
2022/06/13 08:35:12;;;;;;;;;;;;;;;19.57;52.97;100338.34;5055162;28;1042;-41
2022/06/13 08:37:37;;;;;;;;;;;;;;;19.63;53.26;100329.81;5056003;28;1972;-42
2022/06/13 08:40:03;;;;;;;;;;;;;;;19.48;53.50;100328.56;5036362;28;1212;-41
2022/06/13 08:42:33;;;;;;;;;;;;;;;19.49;53.68;100331.06;5054683;28;981;-41
2022/06/13 08:45:05;;;;;;;;;;;;;;;19.55;53.53;100333.16;5034634;28;1168;-41
2022/06/13 08:47:36;;;;;;;;;;;;;;;19.59;53.61;100336.41;5056043;28;1342;-40
2022/06/13 08:50:04;;;;;;;;;;;;;;;19.56;53.58;100336.69;5038917;28;1025;-41
2022/06/13 08:52:35;;;;;;;;;;;;;;;19.43;53.99;100340.50;5038851;28;1076;-41
2022/06/13 08:55:10;;;;;;;;;;;;;;;19.45;53.91;100335.84;5056122;28;1072;-40
2022/06/13 08:57:36;;;;;;;;;;;;;;;19.36;53.88;100341.19;5038693;28;1906;-40
2022/06/13 09:00:06;;;;;;;;;;;;;;;19.23;53.91;100342.31;5032632;28;1013;-40
2022/06/13 09:02:43;;;;;;;;;;;;;;;19.29;54.23;100340.91;5056227;28;1001;-41
2022/06/13 09:05:12;;;;;;;;;;;;;;;19.37;54.16;100346.38;5039211;28;1120;-41
2022/06/13 09:07:52;;;;;;;;;;;;;;;19.12;54.55;100345.94;5038692;28;1061;-41
2022/06/13 09:10:25;;;;;;;;;;;;;;;19.16;54.58;100342.03;5037913;28;1168;-41
2022/06/13 09:12:56;;;;;;;;;;;;;;;19.09;54.47;100346.19;5053180;28;1044;-41
2022/06/13 09:15:24;;;;;;;;;;;;;;;19.01;54.64;100346.91;5038363;28;1048;-40
2022/06/13 09:17:59;;;;;;;;;;;;;;;19.03;54.80;100349.44;5037715;28;1894;-39
2022/06/13 09:20:27;;;;;;;;;;;;;;;19.03;54.89;100342.28;5034410;28;1189;-40
2022/06/13 09:23:11;;;;;;;;;;;;;;;18.97;54.93;100342.81;5037866;28;1251;-41
2022/06/13 09:25:39;;;;;;;;;;;;;;;19.01;54.78;100344.22;5055769;28;1159;-40
2022/06/13 09:28:21;;;;;;;;;;;;;;;18.95;55.08;100337.63;5055842;28;1072;-41
2022/06/13 09:30:51;;;;;;;;;;;;;;;18.89;55.39;100340.00;5036764;28;1040;-41
2022/06/13 09:33:37;;;;;;;;;;;;;;;18.84;55.23;100340.41;5055183;28;1520;-40
2022/06/13 09:36:13;;;;;;;;;;;;;;;18.86;55.43;100327.78;5052528;28;1056;-41
2022/06/13 09:38:40;;;;;;;;;;;;;;;18.78;55.83;100331.16;5037968;28;1049;-41
2022/06/13 09:41:32;;;;;;;;;;;;;;;19.01;55.98;100333.56;5038003;28;1065;-42
2022/06/13 09:43:58;;;;;;;;;;;;;;;18.91;55.12;100343.38;5030602;28;1181;-43
2022/06/13 09:46:29;;;;;;;;;;;;;;;18.96;55.33;100349.97;5054238;28;1312;-41
2022/06/13 09:48:54;;;;;;;;;;;;;;;19.07;55.88;100349.00;5045002;28;1115;-41
2022/06/13 09:51:39;;;;;;;;;;;;;;;19.08;56.13;100331.19;5054018;28;1320;-43
2022/06/13 09:54:22;;;;;;;;;;;;;;;18.90;57.73;100337.19;5054465;28;1461;-44
2022/06/13 09:57:00;;;;;;;;;;;;;;;19.00;58.68;100331.03;5053584;28;1976;-43
2022/06/13 09:59:29;;;;;;;;;;;;;;;19.38;60.75;100349.91;5054082;28;1257;-43
2022/06/13 10:05:06;;;;;;;;;;;;;;;19.26;61.02;100335.84;5055055;28;1501;-43
2022/06/13 10:07:38;;;;;;;;;;;;;;;19.32;60.73;100343.28;5054883;28;1201;-43
2022/06/13 10:10:04;;;;;;;;;;;;;;;19.69;60.91;100331.91;5053988;28;1399;-42
2022/06/13 10:12:29;;;;;;;;;;;;;;;20.34;61.67;100329.47;5053287;28;1299;-43
2022/06/13 10:15:13;;;;;;;;;;;;;;;21.23;61.09;100320.09;5053504;28;1371;-42
2022/06/13 10:17:49;;;;;;;;;;;;;;;21.08;59.61;100325.13;5054630;28;1972;-42
2022/06/13 10:20:15;;;;;;;;;;;;;;;20.88;59.62;100326.09;5052118;28;1351;-42
2022/06/13 10:22:46;;;;;;;;;;;;;;;20.79;58.85;100325.16;5052796;28;1419;-42
2022/06/13 10:25:30;;;;;;;;;;;;;;;20.87;60.12;100316.38;5054772;28;1209;-42
2022/06/13 10:27:55;;;;;;;;;;;;;;;21.81;59.74;100322.38;5054925;28;1248;-42
2022/06/13 10:30:33;;;;;;;;;;;;;;;21.55;58.02;100320.50;5054084;28;1569;-42
2022/06/13 10:33:21;;;;;;;;;;;;;;;21.82;58.96;100324.06;5057960;28;1240;-42
2022/06/13 10:35:51;;;;;;;;;;;;;;;21.57;58.41;100322.00;5057463;28;1358;-43
2022/06/13 10:38:27;;;;;;;;;;;;;;;21.72;59.26;100321.47;5055756;28;1906;-42
2022/06/13 10:40:53;;;;;;;;;;;;;;;21.71;58.23;100315.25;5041276;28;1140;-43
2022/06/13 10:43:18;;;;;;;;;;;;;;;21.92;57.54;100314.06;5041034;28;1184;-42
2022/06/13 10:45:43;;;;;;;;;;;;;;;21.92;57.24;100313.25;5040801;28;999;-43
2022/06/13 10:48:29;;;;;;;;;;;;;;;21.82;57.05;100316.84;5059015;28;1167;-42
2022/06/13 10:50:55;;;;;;;;;;;;;;;21.82;55.72;100314.19;5058355;28;1276;-42
2022/06/13 10:53:23;;;;;;;;;;;;;;;21.80;56.79;100312.66;5041430;28;1125;-42
2022/06/13 10:55:48;;;;;;;;;;;;;;;21.62;57.79;100311.69;5041345;28;1058;-42
2022/06/13 10:58:21;;;;;;;;;;;;;;;21.83;57.81;100307.00;5040656;28;1910;-42
2022/06/13 11:01:12;;;;;;;;;;;;;;;21.41;56.76;100312.03;5040437;28;948;-43
2022/06/13 11:03:57;;;;;;;;;;;;;;;21.93;57.70;100315.78;5054095;28;1884;-43
2022/06/13 11:06:22;;;;;;;;;;;;;;;22.52;56.15;100306.16;5056799;28;1204;-42
2022/06/13 11:08:56;;;;;;;;;;;;;;;21.98;57.27;100300.06;5056354;28;1223;-42
2022/06/13 11:11:28;;;;;;;;;;;;;;;22.81;55.71;100290.66;5057061;28;1212;-40
2022/06/13 11:13:53;;;;;;;;;;;;;;;22.97;54.11;100289.84;5041083;28;1255;-41
2022/06/13 11:22:43;;;;;;;;;;;;;;;22.35;53.96;100297.22;4962036;28;1152;-42
2022/06/13 11:25:23;;;;;;;;;;;;;;;21.95;54.78;100295.03;5054453;28;1006;-40
2022/06/13 11:28:00;;;;;;;;;;;;;;;21.38;54.92;100302.50;5058399;28;1057;-42
2022/06/13 11:30:25;;;;;;;;;;;;;;;21.49;55.45;100292.50;5058103;28;879;-43
2022/06/13 11:33:08;;;;;;;;;;;;;;;22.01;55.44;100293.53;5056694;28;1228;-42
2022/06/13 11:35:54;;;;;;;;;;;;;;;23.70;54.23;100281.09;5057515;28;1196;-45
2022/06/13 11:38:27;;;;;;;;;;;;;;;23.07;53.04;100292.38;5040414;28;1976;-43
2022/06/13 11:40:58;;;;;;;;;;;;;;;21.94;54.55;100296.00;5056741;28;1176;-42
2022/06/13 11:43:44;;;;;;;;;;;;;;;22.23;55.18;100284.09;5057793;28;958;-44
2022/06/13 11:46:30;;;;;;;;;;;;;;;21.93;54.60;100293.50;5042990;28;1215;-43
2022/06/13 11:48:56;;;;;;;;;;;;;;;22.65;54.37;100281.59;5035027;28;1054;-45
2022/06/13 11:51:25;;;;;;;;;;;;;;;22.94;54.53;100282.97;5039613;28;986;-45
2022/06/13 11:53:50;;;;;;;;;;;;;;;22.47;54.54;100274.47;5054017;28;1410;-45
2022/06/13 11:56:27;;;;;;;;;;;;;;;21.80;54.97;100277.88;5057618;28;1914;-45
2022/06/13 11:58:53;;;;;;;;;;;;;;;22.38;54.22;100276.28;5056330;28;1177;-47
2022/06/13 12:01:18;;;;;;;;;;;;;;;22.64;55.22;100269.16;5039350;28;1312;-46
2022/06/13 12:04:03;;;;;;;;;;;;;;;22.40;55.00;100276.13;5055765;28;1332;-44
2022/06/13 12:06:33;;;;;;;;;;;;;;;23.16;52.25;100261.00;5055985;28;1471;-46
2022/06/13 12:09:18;;;;;;;;;;;;;;;23.17;52.89;100255.47;5039294;28;1478;-46
2022/06/13 12:11:45;;;;;;;;;;;;;;;23.51;52.27;100266.19;5038954;28;1103;-46
2022/06/13 12:14:11;;;;;;;;;;;;;;;22.32;52.62;100252.00;5056704;28;985;-45
2022/06/13 12:16:39;;;;;;;;;;;;;;;22.45;54.04;100247.00;5056075;28;1965;-47
2022/06/13 12:19:16;;;;;;;;;;;;;;;22.81;51.92;100258.47;5054792;28;1308;-46
2022/06/13 12:22:00;;;;;;;;;;;;;;;22.79;52.64;100253.28;5037042;28;1434;-46
2022/06/13 12:24:46;;;;;;;;;;;;;;;23.24;51.08;100247.56;5053398;28;1005;-47
2022/06/13 12:27:17;;;;;;;;;;;;;;;22.85;53.61;100228.50;5056140;28;1448;-44
2022/06/13 12:29:49;;;;;;;;;;;;;;;23.30;53.47;100238.03;5039406;28;1523;-46
2022/06/13 12:32:18;;;;;;;;;;;;;;;23.18;53.24;100235.69;5038469;28;1107;-46
2022/06/13 12:35:06;;;;;;;;;;;;;;;22.37;53.83;100233.59;5055953;28;1141;-45
2022/06/13 12:37:50;;;;;;;;;;;;;;;22.49;53.07;100231.41;5038284;28;1956;-43
2022/06/13 12:40:20;;;;;;;;;;;;;;;21.25;51.78;100227.97;5056331;28;1203;-43
2022/06/13 12:42:48;;;;;;;;;;;;;;;20.37;52.82;100221.50;5056802;28;969;-44
2022/06/13 12:45:16;;;;;;;;;;;;;;;20.23;52.36;100214.81;5038101;28;1053;-43
2022/06/13 12:48:00;;;;;;;;;;;;;;;20.19;52.36;100219.63;5055521;28;1142;-43
2022/06/13 12:50:35;;;;;;;;;;;;;;;19.96;53.01;100233.34;5056005;28;1105;-44
2022/06/13 12:53:00;;;;;;;;;;;;;;;20.13;52.88;100222.88;5056607;28;1256;-43
2022/06/13 12:55:31;;;;;;;;;;;;;;;20.01;53.25;100223.06;5055997;28;1277;-44
2022/06/13 12:58:17;;;;;;;;;;;;;;;19.88;53.14;100223.41;5056121;28;1910;-44
2022/06/13 13:00:47;;;;;;;;;;;;;;;19.80;53.62;100215.28;5044405;28;1241;-43
2022/06/13 13:03:12;;;;;;;;;;;;;;;19.54;53.65;100219.44;5038661;28;990;-43
2022/06/13 13:05:56;;;;;;;;;;;;;;;19.52;54.12;100218.72;5055951;28;1272;-43
2022/06/13 13:08:28;;;;;;;;;;;;;;;19.49;53.69;100236.84;5052176;28;1473;-43
2022/06/13 13:10:54;;;;;;;;;;;;;;;19.20;53.88;100247.44;5024565;28;1220;-42
2022/06/13 13:13:19;;;;;;;;;;;;;;;19.21;53.86;100250.94;5054120;28;1240;-43
2022/06/13 13:15:56;;;;;;;;;;;;;;;19.14;53.70;100232.00;5053194;28;1224;-43
2022/06/13 13:18:36;;;;;;;;;;;;;;;19.07;54.46;100242.38;5056336;28;1975;-43
2022/06/13 13:21:06;;;;;;;;;;;;;;;19.01;54.32;100248.28;5055146;28;1265;-43